Time;durP1;ratioP1;P1;durP2;ratioP2;P2;SDS_P1;SDS_P2;PMS_P1;PMS_P2;Temp;Humidity;BMP_temperature;BMP_pressure;BME280_temperature;BME280_humidity;BME280_pressure;Samples;Min_cycle;Max_cycle;Signal;HPM_P1;HPM_P2
2022/03/13 00:00:23;;;;;;;4.78;2.90;;;5.80;88.20;;;;;;5024653;28;20033;-71
2022/03/13 00:02:50;;;;;;;11.38;3.85;;;5.80;89.80;;;;;;5024959;28;20069;-71
2022/03/13 00:05:16;;;;;;;6.82;3.22;;;5.70;88.10;;;;;;5023530;28;20112;-71
2022/03/13 00:07:56;;;;;;;5.55;2.88;;;5.70;88.00;;;;;;5024207;28;20049;-72
2022/03/13 00:10:27;;;;;;;6.70;3.22;;;5.70;87.20;;;;;;5023260;28;20034;-73
2022/03/13 00:12:54;;;;;;;8.38;2.80;;;5.70;86.90;;;;;;5024334;28;20041;-71
2022/03/13 00:15:35;;;;;;;6.53;2.78;;;5.70;87.70;;;;;;5025237;28;20045;-71
2022/03/13 00:18:02;;;;;;;4.68;2.50;;;5.70;89.20;;;;;;5044175;28;20025;-73
2022/03/13 00:20:29;;;;;;;5.82;3.30;;;5.70;90.00;;;;;;5044374;28;20073;-71
2022/03/13 00:22:55;;;;;;;9.95;3.30;;;5.60;88.90;;;;;;5044493;28;20029;-72
2022/03/13 00:25:20;;;;;;;9.90;3.78;;;5.60;89.50;;;;;;5044431;28;20029;-72
2022/03/13 00:27:47;;;;;;;8.43;3.08;;;5.60;90.10;;;;;;5043925;28;20037;-72
2022/03/13 00:30:13;;;;;;;9.15;3.03;;;5.50;89.90;;;;;;5044261;28;20045;-72
2022/03/13 00:32:39;;;;;;;3.92;2.47;;;5.50;90.00;;;;;;5043651;28;20060;-73
2022/03/13 00:35:06;;;;;;;8.32;3.38;;;5.40;89.00;;;;;;5044102;28;20060;-72
2022/03/13 00:37:32;;;;;;;6.00;3.00;;;5.30;88.90;;;;;;5030273;28;20030;-72
2022/03/13 00:40:00;;;;;;;7.75;3.50;;;5.30;90.20;;;;;;5023864;28;20044;-72
2022/03/13 00:42:25;;;;;;;7.15;3.13;;;5.20;90.60;;;;;;5024174;28;20026;-72
2022/03/13 00:44:59;;;;;;;7.55;3.83;;;5.10;90.70;;;;;;5023807;28;20066;-72
2022/03/13 00:47:25;;;;;;;7.80;2.60;;;5.10;90.80;;;;;;5024121;28;20041;-73
2022/03/13 00:49:52;;;;;;;6.18;2.88;;;5.00;90.50;;;;;;5023647;28;20032;-73
2022/03/13 00:52:17;;;;;;;8.20;3.70;;;5.00;90.40;;;;;;5023885;28;20050;-72
2022/03/13 00:54:44;;;;;;;6.43;2.88;;;5.00;90.80;;;;;;5024186;28;20041;-72
2022/03/13 00:57:10;;;;;;;9.07;3.85;;;5.00;91.00;;;;;;5023276;28;20018;-72
2022/03/13 00:59:37;;;;;;;11.30;3.67;;;5.00;91.00;;;;;;5024021;28;20525;-73
2022/03/13 01:02:03;;;;;;;12.90;4.15;;;5.00;90.90;;;;;;5023875;28;20014;-73
2022/03/13 01:04:29;;;;;;;11.35;4.20;;;5.00;90.60;;;;;;5023757;28;20518;-74
2022/03/13 01:06:55;;;;;;;7.68;3.40;;;5.00;91.10;;;;;;5023693;28;20376;-71
2022/03/13 01:09:20;;;;;;;8.85;3.53;;;4.90;91.30;;;;;;5022340;28;20044;-71
2022/03/13 01:11:46;;;;;;;13.32;4.13;;;4.90;91.50;;;;;;5021788;28;20029;-72
2022/03/13 01:14:12;;;;;;;10.73;3.90;;;4.90;91.20;;;;;;5023530;28;20108;-72
2022/03/13 01:16:40;;;;;;;7.72;3.17;;;4.80;92.00;;;;;;5023206;28;20017;-71
2022/03/13 01:19:08;;;;;;;6.45;3.63;;;4.80;91.90;;;;;;5023609;28;20022;-72
2022/03/13 01:21:40;;;;;;;13.57;3.10;;;4.80;91.90;;;;;;5022092;28;20053;-72
2022/03/13 01:24:05;;;;;;;7.90;2.97;;;4.70;91.50;;;;;;5022796;28;20137;-71
2022/03/13 01:26:37;;;;;;;7.05;3.45;;;4.70;91.60;;;;;;5023344;28;20049;-72
2022/03/13 01:29:11;;;;;;;10.80;4.20;;;4.70;91.80;;;;;;5023423;28;20026;-73
2022/03/13 01:31:40;;;;;;;9.13;4.28;;;4.70;92.10;;;;;;5023055;28;20449;-73
2022/03/13 01:34:10;;;;;;;7.93;3.65;;;4.80;92.00;;;;;;5022881;28;20026;-72
2022/03/13 01:36:36;;;;;;;9.18;3.75;;;4.60;91.90;;;;;;5023451;28;20022;-71
2022/03/13 01:39:03;;;;;;;8.98;3.75;;;4.60;92.00;;;;;;5023383;28;20076;-72
2022/03/13 01:41:31;;;;;;;4.95;2.90;;;4.60;91.90;;;;;;5023706;28;20556;-71
2022/03/13 01:43:58;;;;;;;6.68;3.53;;;4.60;91.80;;;;;;5023542;28;20137;-72
2022/03/13 01:46:24;;;;;;;8.10;3.35;;;4.60;92.10;;;;;;5022332;28;20045;-70
2022/03/13 01:49:03;;;;;;;7.35;3.70;;;4.60;91.50;;;;;;5023350;28;20508;-70
2022/03/13 01:51:30;;;;;;;16.65;4.43;;;4.50;92.40;;;;;;5023313;28;20085;-70
2022/03/13 01:54:01;;;;;;;7.57;3.22;;;4.40;92.30;;;;;;5022832;28;20030;-70
2022/03/13 01:56:28;;;;;;;9.93;3.53;;;4.40;92.30;;;;;;5023506;28;20022;-71
2022/03/13 01:58:55;;;;;;;9.57;3.35;;;4.40;92.40;;;;;;5023324;28;20132;-71
2022/03/13 02:01:22;;;;;;;8.38;3.85;;;4.30;92.30;;;;;;5021046;28;20049;-70
2022/03/13 02:03:48;;;;;;;5.55;3.03;;;4.30;91.90;;;;;;5023166;28;20049;-71
2022/03/13 02:06:15;;;;;;;7.90;3.83;;;4.30;91.70;;;;;;5022938;28;20030;-71
2022/03/13 02:08:43;;;;;;;7.15;3.63;;;4.30;91.90;;;;;;5022446;28;20053;-71
2022/03/13 02:11:08;;;;;;;13.25;4.28;;;4.30;91.90;;;;;;5023180;28;20160;-70
2022/03/13 02:13:45;;;;;;;10.18;3.45;;;4.30;91.90;;;;;;5023211;28;20026;-72
2022/03/13 02:16:11;;;;;;;9.27;4.25;;;4.30;92.40;;;;;;5025065;28;20022;-70
2022/03/13 02:18:39;;;;;;;13.23;4.75;;;4.20;92.40;;;;;;5022624;28;20098;-71
2022/03/13 02:21:06;;;;;;;8.63;3.60;;;4.20;93.50;;;;;;5023426;28;20042;-71
2022/03/13 02:23:32;;;;;;;7.97;4.00;;;4.20;93.10;;;;;;5026657;28;20053;-71
2022/03/13 02:25:59;;;;;;;7.70;4.32;;;4.10;92.50;;;;;;5027024;28;20029;-71
2022/03/13 02:28:30;;;;;;;8.63;3.20;;;4.10;92.70;;;;;;5026591;28;20044;-71
2022/03/13 02:31:01;;;;;;;13.68;4.97;;;4.00;92.30;;;;;;5026726;28;20452;-71
2022/03/13 02:33:27;;;;;;;22.92;4.18;;;4.00;92.70;;;;;;5027174;28;20041;-71
2022/03/13 02:35:57;;;;;;;11.60;4.13;;;4.00;93.70;;;;;;5026233;28;20180;-71
2022/03/13 02:38:24;;;;;;;13.45;4.18;;;3.90;93.20;;;;;;5025940;28;20037;-71
2022/03/13 02:40:49;;;;;;;7.90;3.75;;;3.90;92.90;;;;;;5026622;28;20026;-70
2022/03/13 02:43:17;;;;;;;9.68;3.30;;;3.90;93.00;;;;;;5043735;28;20032;-71
2022/03/13 02:45:43;;;;;;;10.75;4.03;;;3.90;92.90;;;;;;5046173;28;20393;-72
2022/03/13 02:48:11;;;;;;;6.07;3.33;;;3.90;93.00;;;;;;5047672;28;20053;-72
2022/03/13 02:50:38;;;;;;;12.38;4.05;;;3.80;92.80;;;;;;5047371;28;20021;-72
2022/03/13 02:53:05;;;;;;;9.38;3.45;;;3.90;93.00;;;;;;5047868;28;20092;-73
2022/03/13 02:55:32;;;;;;;25.23;4.35;;;3.80;93.30;;;;;;5047497;28;20030;-72
2022/03/13 02:57:58;;;;;;;8.95;3.83;;;3.80;93.30;;;;;;5047758;28;20470;-70
2022/03/13 03:00:43;;;;;;;9.63;4.22;;;3.70;93.20;;;;;;5047566;28;20034;-71
2022/03/13 03:03:09;;;;;;;7.95;3.25;;;3.70;93.70;;;;;;5046964;28;20021;-72
2022/03/13 03:05:35;;;;;;;7.35;3.40;;;3.60;93.80;;;;;;5047307;28;20024;-72
2022/03/13 03:08:01;;;;;;;12.98;4.68;;;3.60;93.60;;;;;;5047407;28;20065;-71
2022/03/13 03:10:27;;;;;;;12.70;4.30;;;3.50;93.70;;;;;;5029507;28;20040;-72
2022/03/13 03:13:00;;;;;;;17.20;4.97;;;3.50;93.60;;;;;;5047283;28;20056;-72
2022/03/13 03:15:26;;;;;;;10.40;3.75;;;3.50;93.80;;;;;;5047296;28;20032;-73
2022/03/13 03:17:52;;;;;;;11.93;4.68;;;3.50;94.00;;;;;;5046782;28;20045;-72
2022/03/13 03:20:19;;;;;;;10.77;4.63;;;3.40;94.30;;;;;;5047434;28;20022;-72
2022/03/13 03:22:47;;;;;;;12.30;4.55;;;3.40;94.10;;;;;;5047229;28;20049;-72
2022/03/13 03:25:13;;;;;;;9.23;4.07;;;3.40;94.10;;;;;;5046879;28;20482;-73
2022/03/13 03:27:42;;;;;;;17.02;4.57;;;3.40;94.50;;;;;;5047167;28;20041;-73
2022/03/13 03:30:09;;;;;;;11.48;4.18;;;3.40;94.50;;;;;;5028866;28;20482;-73
2022/03/13 03:32:34;;;;;;;8.90;3.60;;;3.30;94.30;;;;;;5045832;28;20022;-73
2022/03/13 03:35:00;;;;;;;13.10;4.38;;;3.30;94.30;;;;;;5047187;28;20032;-72
2022/03/13 03:37:26;;;;;;;12.30;5.13;;;3.30;94.20;;;;;;5046708;28;20032;-72
2022/03/13 03:39:51;;;;;;;11.20;3.88;;;3.20;94.20;;;;;;5028719;28;20471;-72
2022/03/13 03:42:27;;;;;;;9.75;4.55;;;3.20;94.30;;;;;;5046567;28;20033;-72
2022/03/13 03:44:52;;;;;;;10.93;3.97;;;3.10;94.40;;;;;;5028187;28;20136;-71
2022/03/13 03:47:19;;;;;;;7.82;3.55;;;3.20;94.50;;;;;;5046666;28;20029;-72
2022/03/13 03:49:44;;;;;;;10.95;5.07;;;3.10;94.60;;;;;;5028634;28;20053;-72
2022/03/13 03:52:17;;;;;;;8.35;4.43;;;3.10;94.80;;;;;;5046197;28;20029;-72
2022/03/13 03:54:42;;;;;;;7.70;3.70;;;3.10;94.70;;;;;;5046479;28;20024;-73
2022/03/13 03:57:08;;;;;;;12.65;4.05;;;3.00;94.00;;;;;;5046635;28;20049;-73
2022/03/13 03:59:34;;;;;;;9.60;4.13;;;3.00;93.70;;;;;;5028506;28;20079;-71
2022/03/13 04:02:00;;;;;;;8.48;4.35;;;3.00;93.80;;;;;;5028779;28;20053;-71
2022/03/13 04:04:25;;;;;;;12.43;3.97;;;2.90;94.10;;;;;;5046669;28;20029;-71
2022/03/13 04:06:53;;;;;;;12.05;4.47;;;2.90;94.30;;;;;;5046151;28;20026;-71
2022/03/13 04:09:19;;;;;;;9.55;4.03;;;2.90;94.00;;;;;;5045922;28;20060;-72
2022/03/13 04:11:47;;;;;;;8.60;4.15;;;2.90;94.60;;;;;;5046497;28;20048;-72
2022/03/13 04:14:14;;;;;;;5.50;3.33;;;2.90;94.70;;;;;;5045514;28;20018;-73
2022/03/13 04:16:41;;;;;;;7.55;4.25;;;2.90;93.90;;;;;;5045622;28;20029;-72
2022/03/13 04:19:11;;;;;;;11.60;4.80;;;2.90;93.80;;;;;;5046330;28;20026;-72
2022/03/13 04:21:40;;;;;;;15.40;4.43;;;2.90;94.70;;;;;;5045765;28;20049;-72
2022/03/13 04:24:10;;;;;;;8.43;4.38;;;2.90;94.80;;;;;;5045941;28;20021;-73
2022/03/13 04:26:39;;;;;;;7.93;4.05;;;2.90;94.20;;;;;;5045941;28;20025;-72
2022/03/13 04:29:06;;;;;;;9.50;4.03;;;2.90;94.60;;;;;;5045280;28;20029;-71
2022/03/13 04:31:35;;;;;;;11.00;4.25;;;2.90;94.40;;;;;;5045640;28;20029;-71
2022/03/13 04:34:01;;;;;;;12.25;3.60;;;2.90;94.70;;;;;;5028281;28;20025;-71
2022/03/13 04:36:30;;;;;;;10.38;4.07;;;2.90;95.10;;;;;;5045992;28;20057;-72
2022/03/13 04:39:10;;;;;;;9.05;4.40;;;2.80;95.00;;;;;;5045802;28;20384;-74
2022/03/13 04:41:38;;;;;;;9.20;4.15;;;2.80;95.10;;;;;;5045482;28;20466;-72
2022/03/13 04:44:04;;;;;;;8.63;3.58;;;2.70;95.10;;;;;;5045280;28;20112;-73
2022/03/13 04:46:30;;;;;;;10.07;4.28;;;2.70;95.20;;;;;;5044968;28;20045;-71
2022/03/13 04:48:57;;;;;;;10.30;4.90;;;2.70;95.30;;;;;;5045281;28;20041;-70
2022/03/13 04:51:34;;;;;;;8.23;3.50;;;2.60;95.80;;;;;;5045242;28;20103;-72
2022/03/13 04:54:00;;;;;;;7.35;3.75;;;2.60;95.80;;;;;;5045879;28;20425;-73
2022/03/13 04:56:26;;;;;;;8.90;4.10;;;2.60;95.60;;;;;;5045202;28;20029;-71
2022/03/13 04:58:52;;;;;;;18.13;4.50;;;2.60;95.40;;;;;;5045034;28;20063;-71
2022/03/13 05:01:19;;;;;;;17.27;5.32;;;2.50;95.20;;;;;;5045166;28;20060;-71
2022/03/13 05:03:45;;;;;;;16.60;4.40;;;2.50;95.20;;;;;;5045172;28;20028;-71
2022/03/13 05:06:11;;;;;;;10.63;4.97;;;2.50;95.30;;;;;;5044904;28;20033;-72
2022/03/13 05:08:37;;;;;;;10.40;4.38;;;2.40;95.70;;;;;;5044719;28;20080;-71
2022/03/13 05:11:05;;;;;;;9.93;4.07;;;2.40;95.90;;;;;;5045006;28;20486;-74
2022/03/13 05:13:33;;;;;;;9.57;4.40;;;2.40;96.00;;;;;;5044410;28;20095;-72
2022/03/13 05:16:00;;;;;;;10.05;4.07;;;2.40;95.80;;;;;;5044731;28;20398;-72
2022/03/13 05:18:26;;;;;;;9.90;4.18;;;2.40;95.80;;;;;;5044913;28;20018;-70
2022/03/13 05:20:55;;;;;;;11.18;4.72;;;2.30;96.40;;;;;;5027224;28;20025;-71
2022/03/13 05:23:28;;;;;;;9.40;3.83;;;2.30;96.10;;;;;;5044568;28;20371;-71
2022/03/13 05:25:54;;;;;;;11.43;4.65;;;2.30;96.50;;;;;;5025935;28;20033;-71
2022/03/13 05:28:20;;;;;;;11.50;4.20;;;2.30;96.60;;;;;;5044433;28;20444;-70
2022/03/13 05:30:52;;;;;;;9.35;4.47;;;2.30;96.60;;;;;;5044090;28;20021;-70
2022/03/13 05:33:18;;;;;;;11.05;3.53;;;2.30;96.70;;;;;;5044589;28;20025;-71
2022/03/13 05:35:43;;;;;;;9.35;4.10;;;2.30;96.60;;;;;;5045091;28;20037;-72
2022/03/13 05:38:09;;;;;;;10.98;4.10;;;2.30;96.60;;;;;;5044275;28;20097;-72
2022/03/13 05:40:40;;;;;;;10.43;4.15;;;2.30;96.70;;;;;;5044970;28;20030;-73
2022/03/13 05:43:07;;;;;;;12.98;4.72;;;2.20;96.90;;;;;;5044676;28;20470;-73
2022/03/13 05:45:33;;;;;;;9.93;4.43;;;2.20;96.80;;;;;;5044037;28;20110;-71
2022/03/13 05:48:06;;;;;;;11.45;4.55;;;2.20;96.40;;;;;;5044100;28;20034;-74
2022/03/13 05:50:33;;;;;;;15.35;4.78;;;2.10;95.90;;;;;;5026744;28;20029;-73
2022/03/13 05:52:59;;;;;;;8.75;4.45;;;2.10;96.50;;;;;;5044595;28;20025;-72
2022/03/13 05:55:26;;;;;;;7.75;3.50;;;2.10;96.30;;;;;;5045042;28;20421;-71
2022/03/13 05:57:53;;;;;;;10.18;4.15;;;2.00;96.30;;;;;;5033276;28;20033;-73
2022/03/13 06:00:21;;;;;;;11.70;4.88;;;2.00;96.10;;;;;;5050256;28;20028;-70
2022/03/13 06:02:47;;;;;;;11.23;4.63;;;2.00;95.90;;;;;;5050657;28;20026;-72
2022/03/13 06:05:14;;;;;;;15.15;5.03;;;2.00;95.70;;;;;;5050742;28;20028;-71
2022/03/13 06:07:53;;;;;;;10.48;4.45;;;2.00;95.60;;;;;;5050806;28;20101;-73
2022/03/13 06:10:19;;;;;;;10.82;4.18;;;2.00;95.70;;;;;;5036953;28;20034;-71
2022/03/13 06:12:45;;;;;;;13.57;4.15;;;2.10;96.80;;;;;;5030828;28;20029;-71
2022/03/13 06:15:12;;;;;;;11.48;4.38;;;2.10;96.00;;;;;;5032816;28;20037;-71
2022/03/13 06:17:40;;;;;;;6.13;3.58;;;2.10;96.00;;;;;;5050872;28;20025;-73
2022/03/13 06:20:10;;;;;;;9.52;4.35;;;2.20;96.40;;;;;;5050451;28;20048;-73
2022/03/13 06:22:37;;;;;;;10.35;4.85;;;2.20;95.70;;;;;;5050637;28;20055;-71
2022/03/13 06:25:05;;;;;;;12.25;4.63;;;2.20;95.60;;;;;;5050980;28;20104;-71
2022/03/13 06:27:30;;;;;;;17.02;4.65;;;2.20;95.40;;;;;;5050932;28;20033;-71
2022/03/13 06:29:59;;;;;;;11.52;4.22;;;2.20;95.20;;;;;;5033070;28;20206;-72
2022/03/13 06:32:27;;;;;;;6.60;3.65;;;2.30;95.10;;;;;;5051027;28;20029;-72
2022/03/13 06:34:53;;;;;;;8.45;4.03;;;2.30;95.00;;;;;;5032708;28;20053;-72
2022/03/13 06:37:18;;;;;;;11.27;5.25;;;2.30;94.70;;;;;;5043284;28;20061;-71
2022/03/13 06:39:44;;;;;;;8.93;3.92;;;2.30;94.70;;;;;;5030646;28;20033;-72
2022/03/13 06:42:11;;;;;;;11.75;3.42;;;2.30;94.70;;;;;;5029967;28;20034;-70
2022/03/13 06:44:36;;;;;;;13.50;4.20;;;2.30;94.70;;;;;;5030110;28;20030;-72
2022/03/13 06:47:03;;;;;;;12.50;3.88;;;2.40;94.30;;;;;;5031458;28;20048;-72
2022/03/13 06:49:28;;;;;;;13.93;5.25;;;2.40;94.40;;;;;;5043076;28;20055;-73
2022/03/13 06:51:54;;;;;;;7.85;3.63;;;2.40;94.20;;;;;;5050155;28;20124;-71
2022/03/13 06:54:20;;;;;;;14.70;5.15;;;2.50;94.20;;;;;;5050850;28;20061;-72
2022/03/13 06:56:48;;;;;;;9.70;3.83;;;2.50;94.00;;;;;;5032471;28;20547;-72
2022/03/13 06:59:14;;;;;;;12.52;4.45;;;2.60;93.90;;;;;;5050591;28;20040;-71
2022/03/13 07:01:39;;;;;;;8.90;4.35;;;2.60;94.00;;;;;;5031464;28;20049;-71
2022/03/13 07:04:05;;;;;;;11.35;3.90;;;2.70;93.70;;;;;;5050520;28;20382;-71
2022/03/13 07:06:32;;;;;;;10.88;3.78;;;2.80;94.00;;;;;;5050841;28;20021;-71
2022/03/13 07:09:15;;;;;;;9.85;4.10;;;2.90;93.70;;;;;;5046673;28;20417;-72
2022/03/13 07:11:45;;;;;;;8.50;3.78;;;3.00;94.00;;;;;;5047238;28;20033;-72
2022/03/13 07:14:11;;;;;;;11.98;4.15;;;3.00;93.70;;;;;;5036388;28;20120;-71
2022/03/13 07:16:37;;;;;;;10.77;4.38;;;3.10;93.40;;;;;;5046632;28;20029;-69
2022/03/13 07:19:03;;;;;;;7.82;3.85;;;3.20;93.40;;;;;;5046500;28;20041;-72
2022/03/13 07:21:29;;;;;;;8.95;4.18;;;3.30;93.80;;;;;;5029629;28;20075;-72
2022/03/13 07:23:55;;;;;;;9.98;3.90;;;3.30;93.60;;;;;;5046932;28;20440;-72
2022/03/13 07:26:20;;;;;;;9.35;3.70;;;3.50;93.60;;;;;;5042640;28;20026;-73
2022/03/13 07:28:46;;;;;;;11.45;3.80;;;3.50;93.30;;;;;;5035762;28;20037;-71
2022/03/13 07:31:21;;;;;;;11.43;4.53;;;3.60;93.20;;;;;;5046202;28;20033;-73
2022/03/13 07:33:46;;;;;;;9.57;4.43;;;3.80;93.00;;;;;;5029532;28;20041;-73
2022/03/13 07:36:12;;;;;;;11.13;4.13;;;3.90;93.40;;;;;;5028022;28;20030;-72
2022/03/13 07:38:38;;;;;;;10.77;4.65;;;4.00;93.20;;;;;;5036640;28;20044;-71
2022/03/13 07:41:04;;;;;;;9.15;3.90;;;4.20;92.80;;;;;;5046620;28;20041;-72
2022/03/13 07:43:40;;;;;;;6.93;4.28;;;4.20;92.80;;;;;;5046960;28;20025;-71
2022/03/13 07:46:05;;;;;;;10.43;4.45;;;4.20;92.80;;;;;;5045997;28;20073;-72
2022/03/13 07:48:34;;;;;;;11.85;4.78;;;4.30;92.80;;;;;;5047024;28;20042;-72
2022/03/13 07:51:04;;;;;;;9.00;3.78;;;4.50;93.00;;;;;;5037360;28;20104;-72
2022/03/13 07:53:30;;;;;;;10.02;3.85;;;4.70;92.70;;;;;;5027067;28;20073;-70
2022/03/13 07:55:56;;;;;;;13.20;5.15;;;5.10;92.40;;;;;;5038926;28;20026;-71
2022/03/13 07:58:22;;;;;;;12.38;4.57;;;5.20;92.00;;;;;;5035613;28;20038;-71
2022/03/13 08:00:48;;;;;;;7.15;3.55;;;5.40;91.50;;;;;;5034954;28;20026;-72
2022/03/13 08:03:15;;;;;;;11.48;4.55;;;5.60;91.50;;;;;;5026398;28;20037;-72
2022/03/13 08:05:41;;;;;;;13.48;4.40;;;5.90;91.40;;;;;;5025712;28;20037;-70
2022/03/13 08:08:06;;;;;;;11.05;4.22;;;6.10;91.00;;;;;;5026122;28;20042;-74
2022/03/13 08:10:32;;;;;;;9.40;3.42;;;6.30;90.20;;;;;;5026994;28;20100;-71
2022/03/13 08:12:58;;;;;;;9.75;5.07;;;6.40;90.40;;;;;;5025744;28;20033;-72
2022/03/13 08:15:24;;;;;;;9.18;3.50;;;6.60;89.70;;;;;;5025735;28;20032;-72
2022/03/13 08:17:49;;;;;;;10.07;4.30;;;6.80;90.10;;;;;;5026090;28;20030;-71
2022/03/13 08:20:15;;;;;;;9.43;4.22;;;7.00;90.00;;;;;;5024079;28;20025;-71
2022/03/13 08:22:41;;;;;;;11.57;4.82;;;7.20;88.30;;;;;;5043581;28;20029;-72
2022/03/13 08:25:07;;;;;;;9.00;3.95;;;7.40;87.00;;;;;;5046323;28;20139;-71
2022/03/13 08:27:34;;;;;;;10.45;4.40;;;7.40;86.10;;;;;;5045642;28;20044;-72
2022/03/13 08:30:01;;;;;;;9.40;3.83;;;7.40;85.10;;;;;;5045372;28;20121;-72
2022/03/13 08:32:27;;;;;;;7.75;4.35;;;7.50;86.60;;;;;;5037604;28;20036;-73
2022/03/13 08:34:53;;;;;;;11.35;4.32;;;7.60;87.60;;;;;;5025335;28;20057;-71
2022/03/13 08:37:18;;;;;;;9.05;3.75;;;7.90;87.20;;;;;;5024898;28;20030;-72
2022/03/13 08:39:44;;;;;;;13.50;4.38;;;8.20;85.30;;;;;;5025713;28;20079;-72
2022/03/13 08:42:17;;;;;;;9.18;4.07;;;8.30;83.90;;;;;;5025306;28;20053;-73
2022/03/13 08:44:43;;;;;;;12.35;4.20;;;8.40;84.00;;;;;;5026264;28;20084;-72
2022/03/13 08:47:08;;;;;;;13.00;4.70;;;8.40;83.60;;;;;;5038014;28;20029;-70
2022/03/13 08:49:34;;;;;;;8.02;3.75;;;8.50;83.50;;;;;;5039450;28;20044;-74
2022/03/13 08:52:03;;;;;;;7.28;3.83;;;8.70;83.20;;;;;;5025748;28;20026;-71
2022/03/13 08:54:29;;;;;;;13.63;4.80;;;8.80;83.40;;;;;;5025371;28;20046;-72
2022/03/13 08:56:55;;;;;;;7.07;4.25;;;8.90;82.20;;;;;;5025136;28;20080;-71
2022/03/13 08:59:20;;;;;;;10.90;4.60;;;9.00;81.70;;;;;;5025750;28;20041;-73
2022/03/13 09:01:47;;;;;;;8.63;4.55;;;9.10;81.50;;;;;;5023911;28;20053;-71
2022/03/13 09:04:13;;;;;;;17.70;4.38;;;9.10;81.60;;;;;;5025429;28;20089;-72
2022/03/13 09:06:39;;;;;;;12.68;5.30;;;9.10;82.00;;;;;;5025050;28;20034;-72
2022/03/13 09:09:09;;;;;;;10.93;5.13;;;9.10;82.60;;;;;;5027514;28;20068;-72
2022/03/13 09:11:36;;;;;;;10.23;4.18;;;9.10;83.60;;;;;;5044372;28;20025;-71
2022/03/13 09:14:04;;;;;;;19.48;5.45;;;9.10;82.70;;;;;;5044406;28;20074;-72
2022/03/13 09:16:32;;;;;;;8.13;3.38;;;9.30;82.90;;;;;;5044354;28;20052;-71
2022/03/13 09:18:59;;;;;;;15.43;3.75;;;9.50;82.60;;;;;;5044174;28;20696;-71
2022/03/13 09:21:25;;;;;;;10.48;4.43;;;9.70;82.10;;;;;;5043429;28;20036;-73
2022/03/13 09:23:51;;;;;;;14.70;4.05;;;9.80;80.60;;;;;;5044533;28;20308;-73
2022/03/13 09:26:17;;;;;;;13.50;4.78;;;9.90;82.20;;;;;;5043760;28;20025;-74
2022/03/13 09:28:43;;;;;;;10.40;4.03;;;10.00;81.80;;;;;;5040979;28;20040;-74
2022/03/13 09:31:10;;;;;;;8.93;4.53;;;10.20;81.80;;;;;;5024693;28;20098;-72
2022/03/13 09:33:36;;;;;;;7.88;4.10;;;10.30;79.80;;;;;;5041869;28;20061;-73
2022/03/13 09:36:01;;;;;;;9.85;4.30;;;10.50;81.30;;;;;;5032877;28;20026;-73
2022/03/13 09:38:38;;;;;;;11.05;4.43;;;10.60;79.60;;;;;;5042088;28;20085;-74
2022/03/13 09:41:04;;;;;;;19.55;4.72;;;10.60;79.90;;;;;;5044581;28;20112;-73
2022/03/13 09:43:29;;;;;;;9.05;3.90;;;10.70;79.60;;;;;;5044585;28;20048;-73
2022/03/13 09:45:55;;;;;;;12.40;4.53;;;10.90;80.50;;;;;;5043842;28;20049;-74
2022/03/13 09:48:21;;;;;;;16.20;4.80;;;11.00;79.00;;;;;;5042637;28;20323;-72
2022/03/13 09:50:47;;;;;;;8.18;3.85;;;11.20;79.80;;;;;;5042093;28;20183;-72
2022/03/13 09:53:14;;;;;;;11.40;3.58;;;11.50;78.30;;;;;;5039195;28;20029;-73
2022/03/13 09:55:39;;;;;;;8.32;4.35;;;11.70;78.40;;;;;;5024935;28;20474;-72
2022/03/13 09:58:24;;;;;;;11.65;3.78;;;12.00;77.80;;;;;;5043834;28;20040;-73
2022/03/13 10:01:00;;;;;;;6.75;3.33;;;12.10;77.00;;;;;;5024312;28;20030;-73
2022/03/13 10:03:26;;;;;;;9.65;3.97;;;12.10;75.00;;;;;;5024596;28;20038;-74
2022/03/13 10:05:55;;;;;;;9.30;4.00;;;12.20;75.40;;;;;;5022713;28;20189;-73
2022/03/13 10:08:29;;;;;;;16.55;4.05;;;12.20;73.40;;;;;;5024249;28;20037;-72
2022/03/13 10:10:56;;;;;;;15.00;4.30;;;12.20;73.90;;;;;;5028528;28;20022;-71
2022/03/13 10:13:50;;;;;;;8.90;3.70;;;12.40;73.90;;;;;;5041989;28;20045;-72
2022/03/13 10:16:19;;;;;;;7.72;4.55;;;12.50;73.20;;;;;;5043088;28;20087;-71
2022/03/13 10:18:45;;;;;;;12.73;4.97;;;12.70;75.70;;;;;;5034671;28;20033;-71
2022/03/13 10:21:14;;;;;;;10.98;4.47;;;12.90;74.70;;;;;;5039301;28;20034;-74
2022/03/13 10:23:41;;;;;;;14.95;4.45;;;13.20;74.00;;;;;;5042368;28;20014;-73
2022/03/13 10:26:07;;;;;;;8.18;3.88;;;13.40;74.00;;;;;;5037849;28;20088;-75
2022/03/13 10:28:37;;;;;;;8.45;3.80;;;13.60;73.60;;;;;;5020572;28;20034;-73
2022/03/13 10:31:05;;;;;;;8.00;4.22;;;13.70;73.10;;;;;;5035304;28;20114;-73
2022/03/13 10:33:43;;;;;;;8.90;4.45;;;13.90;72.90;;;;;;5032949;28;20014;-74
2022/03/13 10:36:31;;;;;;;8.90;3.55;;;14.10;72.60;;;;;;5026110;28;20030;-72
2022/03/13 10:39:02;;;;;;;12.43;4.97;;;14.30;73.90;;;;;;5042433;28;20113;-72
2022/03/13 10:41:50;;;;;;;6.85;3.95;;;14.50;73.50;;;;;;5043558;28;20423;-72
2022/03/13 10:44:25;;;;;;;6.90;3.72;;;14.60;73.40;;;;;;5044003;28;20036;-71
2022/03/13 10:46:58;;;;;;;7.18;4.20;;;14.70;72.50;;;;;;5046922;28;20049;-73
2022/03/13 10:49:41;;;;;;;9.23;3.78;;;14.70;72.20;;;;;;5030040;28;20033;-73
2022/03/13 10:52:41;;;;;;;10.38;4.15;;;14.80;70.90;;;;;;5040978;28;20110;-73
2022/03/13 10:55:24;;;;;;;6.68;3.22;;;14.90;69.90;;;;;;5012098;28;20030;-75
2022/03/13 10:57:54;;;;;;;8.55;4.45;;;15.00;70.60;;;;;;5027802;28;20108;-72
2022/03/13 11:00:23;;;;;;;11.55;4.60;;;15.20;70.80;;;;;;5010230;28;20026;-72
2022/03/13 11:02:50;;;;;;;7.10;3.72;;;15.40;72.00;;;;;;5027166;28;20018;-74
2022/03/13 11:05:15;;;;;;;9.98;4.75;;;15.60;74.20;;;;;;5026964;28;20052;-72
2022/03/13 11:07:41;;;;;;;10.98;4.45;;;15.90;73.40;;;;;;5027305;28;20061;-72
2022/03/13 11:10:09;;;;;;;6.85;3.30;;;16.00;71.70;;;;;;5037943;28;20117;-73
2022/03/13 11:12:37;;;;;;;10.15;4.38;;;16.10;71.70;;;;;;5033607;28;20061;-73
2022/03/13 11:15:08;;;;;;;11.93;4.53;;;16.20;70.80;;;;;;5044368;28;20022;-73
2022/03/13 11:17:34;;;;;;;8.57;4.68;;;16.30;70.90;;;;;;5027492;28;20045;-73
2022/03/13 11:20:09;;;;;;;9.57;4.53;;;16.40;73.70;;;;;;5028367;28;20037;-73
2022/03/13 11:22:35;;;;;;;14.70;3.38;;;16.50;71.30;;;;;;5043623;28;20093;-73
2022/03/13 11:25:04;;;;;;;7.93;3.53;;;16.80;70.20;;;;;;5046960;28;20040;-73
2022/03/13 11:27:40;;;;;;;7.95;3.67;;;16.80;68.70;;;;;;5046728;28;20033;-72
2022/03/13 11:30:12;;;;;;;10.95;3.85;;;16.80;68.30;;;;;;5047164;28;20059;-71
2022/03/13 11:32:43;;;;;;;8.23;3.22;;;16.90;65.90;;;;;;5046672;28;20030;-72
2022/03/13 11:35:13;;;;;;;18.48;4.13;;;16.70;63.10;;;;;;5046957;28;20111;-71
2022/03/13 11:37:56;;;;;;;8.52;4.18;;;16.60;65.80;;;;;;5046980;28;20085;-73
2022/03/13 11:40:32;;;;;;;8.75;3.80;;;16.70;65.70;;;;;;5046443;28;20031;-74
2022/03/13 11:43:12;;;;;;;11.20;3.65;;;16.70;64.60;;;;;;5047031;28;20036;-74
2022/03/13 11:45:41;;;;;;;9.65;3.47;;;16.80;63.30;;;;;;5028966;28;20071;-71
2022/03/13 11:48:14;;;;;;;7.90;3.85;;;16.80;64.10;;;;;;5045936;28;20552;-72
2022/03/13 11:50:48;;;;;;;6.40;3.10;;;17.00;63.80;;;;;;5028937;28;20051;-73
2022/03/13 11:53:16;;;;;;;8.30;3.88;;;17.20;64.30;;;;;;5028575;28;20053;-73
2022/03/13 11:56:03;;;;;;;8.05;3.80;;;17.40;65.40;;;;;;5045706;28;20032;-71
2022/03/13 11:58:58;;;;;;;13.30;3.50;;;17.70;64.90;;;;;;5046504;28;20056;-72
2022/03/13 12:01:37;;;;;;;13.85;3.70;;;17.90;63.40;;;;;;5042213;28;20033;-72
2022/03/13 12:04:04;;;;;;;6.72;3.38;;;18.20;61.40;;;;;;5035598;28;20045;-74
2022/03/13 12:06:41;;;;;;;7.82;3.40;;;18.20;61.70;;;;;;5033631;28;20147;-73
2022/03/13 12:09:09;;;;;;;7.93;3.65;;;18.50;63.80;;;;;;5045941;28;20097;-72
2022/03/13 12:11:40;;;;;;;5.88;3.30;;;18.70;63.30;;;;;;5046308;28;20017;-74
2022/03/13 12:14:12;;;;;;;5.20;2.63;;;18.70;60.40;;;;;;5028424;28;20026;-72
2022/03/13 12:16:40;;;;;;;6.28;2.88;;;18.90;60.60;;;;;;5045967;28;20026;-74
2022/03/13 12:19:10;;;;;;;4.63;2.45;;;19.00;60.20;;;;;;5045809;28;20033;-75
2022/03/13 12:21:41;;;;;;;10.45;4.00;;;18.90;59.10;;;;;;5046364;28;20026;-73
2022/03/13 12:24:16;;;;;;;8.75;2.92;;;19.00;60.00;;;;;;5045534;28;20026;-72
2022/03/13 12:26:42;;;;;;;;;;;19.10;58.40;;;;;;5046522;28;20037;-71
2022/03/13 12:29:08;;;;;;;5.85;2.60;;;19.20;57.10;;;;;;5045810;28;19967;-73
2022/03/13 12:31:42;;;;;;;6.90;2.92;;;19.30;60.00;;;;;;5045748;28;20028;-73
2022/03/13 12:34:08;;;;;;;6.80;3.20;;;19.50;59.80;;;;;;5045925;28;20025;-74
2022/03/13 12:36:45;;;;;;;7.25;2.83;;;19.50;57.00;;;;;;5045314;28;20030;-73
2022/03/13 12:39:21;;;;;;;8.02;3.47;;;19.40;57.10;;;;;;5045106;28;20025;-75
2022/03/13 12:42:04;;;;;;;6.85;3.20;;;19.60;58.10;;;;;;5045654;28;20112;-74
2022/03/13 12:44:32;;;;;;;5.35;2.42;;;19.40;56.10;;;;;;5045821;28;20079;-73
2022/03/13 12:46:58;;;;;;;9.52;3.13;;;19.20;56.40;;;;;;5024130;28;20216;-74
2022/03/13 12:49:42;;;;;;;7.65;3.33;;;19.20;57.60;;;;;;5025723;28;20034;-71
2022/03/13 12:52:21;;;;;;;;;;;19.00;56.50;;;;;;5025828;28;20026;-74
2022/03/13 12:54:47;;;;;;;7.40;3.15;;;18.90;55.50;;;;;;5007889;28;19906;-73
2022/03/13 12:57:12;;;;;;;7.18;3.25;;;18.90;57.60;;;;;;5025657;28;20069;-75